Time;durP1;ratioP1;P1;durP2;ratioP2;P2;SDS_P1;SDS_P2;PMS_P1;PMS_P2;Temp;Humidity;BMP_temperature;BMP_pressure;BME280_temperature;BME280_humidity;BME280_pressure;Samples;Min_cycle;Max_cycle;Signal;HPM_P1;HPM_P2
2023/03/09 00:01:29;;;;;;;7.20;4.07;;;1.10;99.90;;;;;;6275285;22;20234;-87
2023/03/09 00:03:55;;;;;;;13.00;4.50;;;1.10;99.90;;;;;;6273835;22;20246;-87
2023/03/09 00:06:21;;;;;;;8.32;3.83;;;1.30;99.90;;;;;;6275741;22;20011;-87
2023/03/09 00:08:47;;;;;;;7.15;3.92;;;1.70;99.90;;;;;;6275794;22;20402;-87
2023/03/09 00:11:14;;;;;;;7.05;3.33;;;1.70;99.90;;;;;;6273679;22;20785;-87
2023/03/09 00:13:40;;;;;;;7.00;3.40;;;0.80;99.90;;;;;;6273318;22;20016;-86
2023/03/09 00:16:14;;;;;;;7.65;3.47;;;0.90;99.90;;;;;;6273589;22;20133;-87
2023/03/09 00:18:40;;;;;;;8.90;3.92;;;0.90;99.90;;;;;;6275266;22;20012;-87
2023/03/09 00:21:06;;;;;;;6.30;3.08;;;2.20;99.90;;;;;;6273880;22;20019;-86
2023/03/09 00:23:33;;;;;;;7.38;3.58;;;0.80;99.90;;;;;;6273533;22;20081;-87
2023/03/09 00:26:06;;;;;;;8.27;3.40;;;0.30;99.90;;;;;;6273746;22;20047;-87
2023/03/09 00:28:33;;;;;;;8.30;3.55;;;1.00;99.90;;;;;;6275766;22;20342;-87
2023/03/09 00:31:07;;;;;;;7.20;3.35;;;1.50;99.90;;;;;;6273187;22;20016;-87
2023/03/09 00:33:32;;;;;;;8.05;3.45;;;0.90;99.90;;;;;;6274954;22;20499;-87
2023/03/09 00:35:58;;;;;;;7.43;3.72;;;1.70;99.90;;;;;;6273701;22;20098;-87
2023/03/09 00:38:24;;;;;;;7.25;3.70;;;0.80;99.90;;;;;;6273900;22;20034;-87
2023/03/09 00:40:50;;;;;;;14.27;5.65;;;0.80;99.90;;;;;;6273842;22;20114;-87
2023/03/09 00:43:16;;;;;;;10.93;4.97;;;0.70;99.90;;;;;;6273553;22;20043;-88
2023/03/09 00:45:42;;;;;;;10.63;4.50;;;1.10;99.90;;;;;;6273371;22;20016;-87
2023/03/09 00:48:08;;;;;;;8.95;4.35;;;1.20;99.90;;;;;;6275013;22;20022;-88
2023/03/09 00:50:33;;;;;;;10.10;4.05;;;0.70;99.90;;;;;;6274073;22;20095;-87
2023/03/09 00:52:59;;;;;;;8.63;3.97;;;0.00;99.90;;;;;;6272894;22;20016;-87
2023/03/09 00:55:25;;;;;;;7.60;3.85;;;0.90;99.90;;;;;;6275409;22;20011;-87
2023/03/09 00:57:50;;;;;;;7.65;3.67;;;1.40;99.90;;;;;;6275406;22;20038;-87
2023/03/09 01:00:16;;;;;;;9.27;4.25;;;0.60;99.90;;;;;;6274198;22;20023;-88
2023/03/09 01:02:42;;;;;;;7.50;4.07;;;0.70;99.90;;;;;;6275187;22;20405;-89
2023/03/09 01:05:10;;;;;;;8.20;4.18;;;0.60;99.90;;;;;;6275608;22;20015;-89
2023/03/09 01:07:36;;;;;;;8.27;3.85;;;0.90;99.90;;;;;;6278478;22;20454;-88
2023/03/09 01:10:03;;;;;;;8.15;3.25;;;1.10;99.90;;;;;;6276849;22;20016;-88
2023/03/09 01:12:29;;;;;;;8.63;3.75;;;0.60;99.90;;;;;;6280553;22;20018;-88
2023/03/09 01:14:59;;;;;;;9.63;4.28;;;0.20;99.90;;;;;;6280198;22;20016;-88
2023/03/09 01:17:24;;;;;;;9.10;4.70;;;0.40;99.90;;;;;;6276700;22;20015;-88
2023/03/09 01:19:50;;;;;;;8.27;4.10;;;1.50;99.90;;;;;;6275860;22;20016;-88
2023/03/09 01:22:16;;;;;;;8.15;3.50;;;0.10;99.90;;;;;;6275983;22;20016;-88
2023/03/09 01:24:42;;;;;;;10.18;5.25;;;0.30;99.90;;;;;;6276047;22;20019;-89
2023/03/09 01:27:09;;;;;;;8.00;4.43;;;0.60;99.90;;;;;;6277993;22;20472;-88
2023/03/09 01:29:35;;;;;;;8.77;4.55;;;0.60;99.90;;;;;;6275773;22;20065;-88
2023/03/09 01:32:00;;;;;;;9.40;4.15;;;0.00;99.90;;;;;;6275855;22;20015;-87
2023/03/09 01:34:26;;;;;;;9.88;4.10;;;0.20;99.90;;;;;;6277704;22;20563;-88
2023/03/09 01:36:52;;;;;;;10.05;4.38;;;0.40;99.90;;;;;;6277291;22;20376;-88
2023/03/09 01:39:18;;;;;;;8.20;3.90;;;-0.50;99.90;;;;;;6275813;22;20027;-88
2023/03/09 01:41:44;;;;;;;8.95;4.15;;;1.50;99.90;;;;;;6276532;22;20442;-88
2023/03/09 01:44:12;;;;;;;11.48;5.05;;;0.10;99.90;;;;;;6277867;22;20015;-87
2023/03/09 01:46:39;;;;;;;10.73;5.00;;;0.90;99.90;;;;;;6276133;22;20015;-87
2023/03/09 01:49:30;;;;;;;13.38;5.32;;;-0.40;99.90;;;;;;6276023;22;20119;-87
2023/03/09 01:52:08;;;;;;;13.82;5.55;;;0.10;99.90;;;;;;6275706;22;20047;-87
2023/03/09 01:54:48;;;;;;;15.90;6.28;;;0.10;99.90;;;;;;6277685;22;20012;-87
2023/03/09 01:57:27;;;;;;;10.93;4.57;;;0.00;99.90;;;;;;6277702;22;20347;-86
2023/03/09 01:59:56;;;;;;;12.77;5.20;;;0.00;99.90;;;;;;6276207;22;20351;-87
2023/03/09 02:02:27;;;;;;;13.82;5.70;;;-0.10;99.90;;;;;;6278117;22;20015;-87
2023/03/09 02:04:59;;;;;;;13.93;5.10;;;0.20;99.90;;;;;;6250383;22;20054;-87
2023/03/09 02:07:27;;;;;;;12.95;5.40;;;0.00;99.90;;;;;;6275810;22;20012;-87
2023/03/09 02:10:08;;;;;;;13.07;5.03;;;0.90;99.90;;;;;;6275897;22;20024;-88
2023/03/09 02:12:34;;;;;;;13.32;5.97;;;-0.20;99.90;;;;;;6250181;22;20399;-86
2023/03/09 02:15:03;;;;;;;14.75;5.70;;;-0.30;99.90;;;;;;6277132;22;20012;-87
2023/03/09 02:17:29;;;;;;;13.57;5.93;;;0.40;99.90;;;;;;6275723;22;20012;-86
2023/03/09 02:20:06;;;;;;;14.57;5.43;;;0.00;99.90;;;;;;6277263;22;20083;-87
2023/03/09 02:22:35;;;;;;;14.10;5.43;;;-0.40;99.90;;;;;;6275181;22;20507;-87
2023/03/09 02:25:20;;;;;;;13.57;6.18;;;-1.00;99.90;;;;;;6275117;22;20043;-87
2023/03/09 02:27:46;;;;;;;14.98;6.05;;;-0.40;99.90;;;;;;6276728;22;20023;-87
2023/03/09 02:30:13;;;;;;;12.65;5.78;;;-0.20;99.90;;;;;;6276952;22;20012;-87
2023/03/09 02:32:39;;;;;;;12.43;5.70;;;-0.60;99.90;;;;;;6275216;22;20023;-87
2023/03/09 02:35:09;;;;;;;14.52;6.40;;;-1.40;99.90;;;;;;6275236;22;20019;-87
2023/03/09 02:37:40;;;;;;;13.70;5.80;;;-0.50;99.90;;;;;;6276880;22;20404;-87
2023/03/09 02:40:26;;;;;;;13.35;5.78;;;-0.50;99.90;;;;;;6274979;22;20015;-87
2023/03/09 02:42:53;;;;;;;11.95;5.22;;;-0.50;99.90;;;;;;6277191;22;20019;-87
2023/03/09 02:45:21;;;;;;;13.15;5.60;;;0.30;99.90;;;;;;6275441;22;20008;-87
2023/03/09 02:47:48;;;;;;;11.85;5.25;;;0.80;99.90;;;;;;6276699;22;20028;-87
2023/03/09 02:50:15;;;;;;;13.27;4.75;;;-0.70;99.90;;;;;;6274977;22;20016;-87
2023/03/09 02:52:41;;;;;;;12.75;4.90;;;0.30;99.90;;;;;;6275146;22;20023;-87
2023/03/09 02:55:07;;;;;;;12.65;5.47;;;-0.40;99.90;;;;;;6275034;22;20538;-86
2023/03/09 02:57:33;;;;;;;15.60;5.53;;;-0.60;99.90;;;;;;6276703;22;20338;-87
2023/03/09 02:59:59;;;;;;;9.73;4.55;;;-0.70;99.90;;;;;;6275630;22;20011;-87
2023/03/09 03:02:25;;;;;;;13.93;5.50;;;-0.60;99.90;;;;;;6274686;22;20085;-87
2023/03/09 03:04:51;;;;;;;12.02;4.90;;;-0.70;99.90;;;;;;6276982;22;20024;-87
2023/03/09 03:07:17;;;;;;;11.70;5.03;;;-0.70;99.90;;;;;;6274606;22;20020;-86
2023/03/09 03:09:43;;;;;;;11.20;5.03;;;-0.40;99.90;;;;;;6274785;22;20016;-86
2023/03/09 03:12:09;;;;;;;12.90;5.15;;;0.60;99.90;;;;;;6276634;22;20016;-87
2023/03/09 03:14:35;;;;;;;12.13;5.05;;;-0.30;99.90;;;;;;6276711;22;20011;-86
2023/03/09 03:17:01;;;;;;;10.95;4.95;;;0.00;99.90;;;;;;6276787;22;20027;-87
2023/03/09 03:19:26;;;;;;;10.98;4.85;;;-1.50;99.90;;;;;;6276638;22;20389;-86
2023/03/09 03:21:52;;;;;;;14.52;5.35;;;-0.50;99.90;;;;;;6274299;22;20377;-86
2023/03/09 03:24:18;;;;;;;11.98;5.00;;;-0.50;99.90;;;;;;6274817;22;20026;-87
2023/03/09 03:26:44;;;;;;;13.00;5.85;;;-0.40;99.90;;;;;;6249066;22;20019;-88
2023/03/09 03:29:10;;;;;;;13.98;5.50;;;-0.20;99.90;;;;;;6274821;22;20019;-87
2023/03/09 03:31:36;;;;;;;14.70;6.13;;;-0.40;99.90;;;;;;6248834;22;20019;-86
2023/03/09 03:34:02;;;;;;;12.77;4.88;;;0.40;99.90;;;;;;6276369;22;20016;-88
2023/03/09 03:36:28;;;;;;;13.88;6.07;;;-0.50;99.90;;;;;;6274412;22;20077;-87
2023/03/09 03:38:54;;;;;;;11.25;5.40;;;-0.20;99.90;;;;;;6274656;22;20023;-87
2023/03/09 03:41:20;;;;;;;15.23;6.65;;;-0.40;99.90;;;;;;6274486;22;20094;-87
2023/03/09 03:43:45;;;;;;;15.00;6.55;;;1.20;99.90;;;;;;6274228;22;20095;-87
2023/03/09 03:46:11;;;;;;;16.00;6.20;;;1.30;99.90;;;;;;6274158;22;20023;-87
2023/03/09 03:48:37;;;;;;;13.07;5.88;;;-0.30;99.90;;;;;;6276231;22;20076;-88
2023/03/09 03:51:05;;;;;;;13.90;5.38;;;-0.30;99.90;;;;;;6276888;22;20324;-88
2023/03/09 03:53:31;;;;;;;11.90;5.20;;;-0.20;99.90;;;;;;6275969;22;20342;-86
2023/03/09 03:55:57;;;;;;;11.48;5.32;;;-0.30;99.90;;;;;;6274255;22;20023;-88
2023/03/09 03:58:23;;;;;;;13.82;6.18;;;1.00;99.90;;;;;;6276408;22;20331;-86
2023/03/09 04:00:48;;;;;;;14.27;6.30;;;-0.60;99.90;;;;;;6273817;22;20439;-87
2023/03/09 04:03:14;;;;;;;14.85;6.63;;;0.30;99.90;;;;;;6274431;22;20137;-87
2023/03/09 04:05:40;;;;;;;13.85;6.55;;;0.20;99.90;;;;;;6274162;22;20435;-87
2023/03/09 04:08:06;;;;;;;13.20;5.40;;;0.60;99.90;;;;;;6274431;22;20020;-87
2023/03/09 04:10:32;;;;;;;14.45;5.55;;;-0.90;99.90;;;;;;6274487;22;20062;-87
2023/03/09 04:12:59;;;;;;;13.73;6.28;;;1.20;99.90;;;;;;6276050;22;20326;-87
2023/03/09 04:15:25;;;;;;;15.52;6.20;;;-0.20;99.90;;;;;;6274904;22;20052;-87
2023/03/09 04:17:51;;;;;;;13.02;5.78;;;0.00;99.90;;;;;;6274237;22;20016;-87
2023/03/09 04:20:17;;;;;;;17.85;7.15;;;-0.10;99.90;;;;;;6274910;22;20030;-86
2023/03/09 04:22:43;;;;;;;14.23;6.18;;;-0.10;99.90;;;;;;6274506;22;20020;-87
2023/03/09 04:25:09;;;;;;;16.63;7.22;;;-0.10;99.90;;;;;;6276507;22;20358;-87
2023/03/09 04:27:35;;;;;;;15.82;7.63;;;0.50;99.90;;;;;;6274073;22;20054;-87
2023/03/09 04:30:01;;;;;;;16.90;6.85;;;0.00;99.90;;;;;;6274481;22;20012;-87
2023/03/09 04:32:26;;;;;;;14.70;6.85;;;0.00;99.90;;;;;;6248748;22;20085;-88
2023/03/09 04:34:52;;;;;;;13.63;5.90;;;1.10;99.90;;;;;;6276197;22;20026;-87
2023/03/09 04:37:18;;;;;;;15.88;7.03;;;0.00;99.90;;;;;;6273834;22;20020;-87
2023/03/09 04:39:43;;;;;;;14.55;6.25;;;-0.40;99.90;;;;;;6274365;22;20019;-87
2023/03/09 04:42:09;;;;;;;16.13;6.20;;;-0.10;99.90;;;;;;6274096;22;20026;-87
2023/03/09 04:44:35;;;;;;;15.07;6.50;;;0.70;99.90;;;;;;6274311;22;20023;-87
2023/03/09 04:47:01;;;;;;;12.30;5.65;;;-0.90;99.90;;;;;;6275896;22;20331;-88
2023/03/09 04:49:26;;;;;;;13.45;6.05;;;0.00;99.90;;;;;;6276212;22;20094;-87
2023/03/09 04:51:52;;;;;;;11.93;4.88;;;0.30;99.90;;;;;;6278264;22;20023;-88
2023/03/09 04:54:18;;;;;;;11.07;5.80;;;0.30;99.90;;;;;;6277761;22;20740;-87
2023/03/09 04:56:44;;;;;;;13.07;5.50;;;-0.20;99.90;;;;;;6278104;22;20020;-88
2023/03/09 04:59:10;;;;;;;13.15;6.15;;;1.20;99.90;;;;;;6275656;22;20093;-87
2023/03/09 05:01:35;;;;;;;13.27;5.20;;;1.20;99.90;;;;;;6277732;22;20454;-87
2023/03/09 05:04:01;;;;;;;11.80;5.15;;;-0.10;99.90;;;;;;6278064;22;20023;-86
2023/03/09 05:06:27;;;;;;;15.35;6.07;;;0.10;99.90;;;;;;6276327;22;20028;-87
2023/03/09 05:08:53;;;;;;;12.32;5.50;;;-0.10;99.90;;;;;;6278315;22;20062;-88
2023/03/09 05:11:18;;;;;;;12.13;5.47;;;-0.20;99.90;;;;;;6275933;22;20026;-87
2023/03/09 05:13:44;;;;;;;10.82;4.95;;;-0.20;99.90;;;;;;6277697;22;20023;-87
2023/03/09 05:16:10;;;;;;;9.73;4.45;;;-0.10;99.90;;;;;;6277972;22;20015;-87
2023/03/09 05:18:36;;;;;;;10.25;5.13;;;-0.30;99.90;;;;;;6277677;22;20015;-88
2023/03/09 05:21:08;;;;;;;11.85;4.60;;;0.40;99.90;;;;;;6277994;22;20331;-87
2023/03/09 05:23:35;;;;;;;10.40;4.88;;;-0.20;99.90;;;;;;6275699;22;20012;-86
2023/03/09 05:26:02;;;;;;;9.10;4.40;;;0.60;99.90;;;;;;6277596;22;20393;-87
2023/03/09 05:28:30;;;;;;;10.70;5.22;;;-0.20;99.90;;;;;;6275997;22;20355;-87
2023/03/09 05:30:56;;;;;;;10.07;4.85;;;-0.10;99.90;;;;;;6277429;22;20328;-87
2023/03/09 05:33:22;;;;;;;9.20;4.35;;;-0.10;99.90;;;;;;6275672;22;20023;-87
2023/03/09 05:35:49;;;;;;;10.60;4.68;;;0.90;99.90;;;;;;6275303;22;20093;-87
2023/03/09 05:38:15;;;;;;;10.07;4.63;;;-0.10;99.90;;;;;;6275513;22;20020;-87
2023/03/09 05:40:43;;;;;;;9.63;4.85;;;-0.10;99.90;;;;;;6275799;22;20335;-86
2023/03/09 05:43:09;;;;;;;10.55;5.07;;;-0.20;99.90;;;;;;6277631;22;20095;-87
2023/03/09 05:45:35;;;;;;;11.05;5.18;;;-0.30;99.90;;;;;;6275771;22;20014;-87
2023/03/09 05:51:42;;;;;;;11.93;5.40;;;-0.10;99.90;;;;;;6277320;22;20069;-87
2023/03/09 05:54:08;;;;;;;13.25;6.07;;;0.50;99.90;;;;;;6275296;22;20454;-86
2023/03/09 05:56:34;;;;;;;12.20;5.63;;;-0.80;99.90;;;;;;6277310;22;20019;-87
2023/03/09 05:59:00;;;;;;;14.80;6.55;;;0.20;99.90;;;;;;6275003;22;20058;-88
2023/03/09 06:01:28;;;;;;;12.52;5.63;;;-0.20;99.90;;;;;;6277222;22;20105;-87
2023/03/09 06:03:55;;;;;;;11.88;5.78;;;0.20;99.90;;;;;;6275787;22;20094;-86
2023/03/09 06:06:20;;;;;;;11.85;5.03;;;0.80;99.90;;;;;;6275118;22;20020;-87
2023/03/09 06:08:46;;;;;;;10.88;5.40;;;-0.10;99.90;;;;;;6276987;22;20016;-87
2023/03/09 06:11:12;;;;;;;12.32;4.90;;;0.30;99.90;;;;;;6249950;22;20015;-87
2023/03/09 06:13:38;;;;;;;9.68;4.55;;;-0.20;99.90;;;;;;6249815;22;20081;-88
2023/03/09 06:16:06;;;;;;;8.40;4.25;;;0.00;99.90;;;;;;6277241;22;20353;-87
2023/03/09 06:18:32;;;;;;;10.25;4.82;;;-0.10;99.90;;;;;;6275820;22;20150;-88
2023/03/09 06:21:02;;;;;;;9.73;4.57;;;0.00;99.90;;;;;;6276737;22;20055;-87
2023/03/09 06:23:30;;;;;;;11.05;4.90;;;-0.10;99.90;;;;;;6276671;22;20051;-87
2023/03/09 06:25:56;;;;;;;11.02;4.82;;;-0.10;99.90;;;;;;6274921;22;20024;-88
2023/03/09 06:28:22;;;;;;;8.98;4.43;;;0.00;99.90;;;;;;6250014;22;20103;-87
2023/03/09 06:30:48;;;;;;;9.38;4.43;;;0.20;99.90;;;;;;6249932;22;20023;-87
2023/03/09 06:33:14;;;;;;;9.68;4.70;;;-0.10;99.90;;;;;;6275202;22;20019;-87
2023/03/09 06:35:40;;;;;;;12.40;5.13;;;0.80;99.90;;;;;;6274887;22;20026;-87
2023/03/09 06:38:07;;;;;;;9.15;4.47;;;1.40;99.90;;;;;;6275117;22;20016;-88
2023/03/09 06:40:32;;;;;;;10.57;5.57;;;1.60;99.90;;;;;;6276645;22;20046;-87
2023/03/09 06:42:58;;;;;;;11.20;4.82;;;0.00;99.90;;;;;;6275583;22;20019;-87
2023/03/09 06:45:25;;;;;;;15.10;6.50;;;-0.10;99.90;;;;;;6275498;22;20022;-86
2023/03/09 06:47:57;;;;;;;13.07;5.57;;;0.10;99.90;;;;;;6275241;22;20015;-87
2023/03/09 06:50:25;;;;;;;14.15;5.50;;;0.90;99.90;;;;;;6275235;22;20512;-87
2023/03/09 06:52:51;;;;;;;9.70;4.70;;;0.00;99.90;;;;;;6249772;22;20091;-87
2023/03/09 06:55:17;;;;;;;10.38;4.80;;;0.50;99.90;;;;;;6274924;22;20023;-87
2023/03/09 06:57:44;;;;;;;8.85;4.38;;;0.00;99.90;;;;;;6276960;22;20012;-87
2023/03/09 07:00:13;;;;;;;9.05;4.28;;;0.10;99.90;;;;;;6276628;22;20065;-87
2023/03/09 07:02:39;;;;;;;8.25;3.75;;;0.20;99.90;;;;;;6274965;22;20492;-87
2023/03/09 07:05:12;;;;;;;8.85;4.30;;;0.10;99.90;;;;;;6277237;22;20067;-92
2023/03/09 07:07:39;;;;;;;12.68;5.45;;;1.30;99.90;;;;;;6249616;22;20023;-87
2023/03/09 07:10:05;;;;;;;9.60;4.97;;;0.40;99.90;;;;;;6274997;22;20047;-87
2023/03/09 07:12:31;;;;;;;10.23;5.10;;;0.30;99.90;;;;;;6275217;22;20414;-87
2023/03/09 07:14:57;;;;;;;8.48;4.30;;;0.50;99.90;;;;;;6275044;22;20103;-86
2023/03/09 07:17:23;;;;;;;12.10;5.85;;;1.10;99.90;;;;;;6274446;22;20019;-88
2023/03/09 07:19:51;;;;;;;12.88;5.78;;;0.90;99.90;;;;;;6275340;22;20394;-88
2023/03/09 07:22:17;;;;;;;11.63;5.32;;;0.20;99.90;;;;;;6274713;22;20027;-88
2023/03/09 07:24:43;;;;;;;11.98;5.75;;;0.30;99.90;;;;;;6276605;22;20070;-87
2023/03/09 07:27:19;;;;;;;;;;;;;;;;;;;;;
2023/03/09 07:29:46;;;;;;;12.13;5.32;;;1.40;99.90;;;;;;6271819;22;20449;-87
2023/03/09 07:32:11;;;;;;;8.57;4.55;;;2.00;99.90;;;;;;6276532;22;20074;-86
2023/03/09 07:34:37;;;;;;;10.00;5.03;;;0.40;99.90;;;;;;6274705;22;20011;-87
2023/03/09 07:37:04;;;;;;;10.93;5.22;;;0.40;99.90;;;;;;6274291;22;20389;-87
2023/03/09 07:39:30;;;;;;;10.80;4.93;;;0.60;99.90;;;;;;6274692;22;20059;-86
2023/03/09 07:41:56;;;;;;;9.27;4.28;;;0.50;99.90;;;;;;6276432;22;20015;-87
2023/03/09 07:44:22;;;;;;;10.07;4.90;;;0.60;99.90;;;;;;6276570;22;20019;-85
2023/03/09 07:46:47;;;;;;;12.23;5.30;;;0.60;99.90;;;;;;6276000;22;20083;-87
2023/03/09 07:49:13;;;;;;;15.57;6.60;;;0.30;99.90;;;;;;6274369;22;20036;-85
2023/03/09 07:51:39;;;;;;;11.82;5.78;;;0.80;99.90;;;;;;6249161;22;20042;-86
2023/03/09 07:54:06;;;;;;;13.35;6.82;;;1.50;99.90;;;;;;6276416;22;20091;-86
2023/03/09 07:56:32;;;;;;;13.38;6.75;;;1.20;99.90;;;;;;6274861;22;20405;-85
2023/03/09 07:58:58;;;;;;;12.82;6.63;;;1.30;99.90;;;;;;6274729;22;20011;-86
2023/03/09 08:01:24;;;;;;;12.15;5.95;;;2.10;99.90;;;;;;6275793;22;20022;-86
2023/03/09 08:03:50;;;;;;;12.52;4.95;;;1.40;99.90;;;;;;6275879;22;20046;-86
2023/03/09 08:06:19;;;;;;;12.85;6.20;;;1.50;99.90;;;;;;6276177;22;20019;-87
2023/03/09 08:08:45;;;;;;;9.75;4.75;;;2.20;99.90;;;;;;6276868;22;20022;-86
2023/03/09 08:11:11;;;;;;;11.52;5.80;;;1.60;99.90;;;;;;6276380;22;20065;-85
2023/03/09 08:13:37;;;;;;;13.80;6.38;;;1.10;99.90;;;;;;6275819;22;20384;-85
2023/03/09 08:16:06;;;;;;;11.88;6.43;;;1.70;99.90;;;;;;6274134;22;20018;-84
2023/03/09 08:18:37;;;;;;;13.75;6.72;;;1.90;99.90;;;;;;6276587;22;20007;-88
2023/03/09 08:21:09;;;;;;;11.35;6.30;;;1.30;99.90;;;;;;6249625;22;20055;-87
2023/03/09 08:23:37;;;;;;;11.80;5.80;;;1.90;99.90;;;;;;6276701;22;20026;-86
2023/03/09 08:26:03;;;;;;;12.30;6.60;;;3.00;99.90;;;;;;6276976;22;20026;-86
2023/03/09 08:28:30;;;;;;;13.13;6.93;;;2.10;99.90;;;;;;6277540;22;20039;-85
2023/03/09 08:30:55;;;;;;;11.77;5.80;;;2.70;99.90;;;;;;6278954;22;20012;-87
2023/03/09 08:33:21;;;;;;;9.63;5.63;;;3.10;99.90;;;;;;6251159;22;20456;-86
2023/03/09 08:35:47;;;;;;;13.07;6.80;;;1.60;99.90;;;;;;6278826;22;20012;-86
2023/03/09 08:38:13;;;;;;;12.45;6.03;;;3.40;99.90;;;;;;6278225;22;20447;-87
2023/03/09 08:40:39;;;;;;;11.07;5.75;;;3.10;99.90;;;;;;6276690;22;20442;-87
2023/03/09 08:43:05;;;;;;;10.43;5.60;;;2.30;99.90;;;;;;6278799;22;20043;-86
2023/03/09 08:45:31;;;;;;;11.70;5.95;;;2.10;99.90;;;;;;6278746;22;20385;-88
2023/03/09 08:48:00;;;;;;;11.10;5.53;;;2.50;99.90;;;;;;6277232;22;20020;-87
2023/03/09 08:50:26;;;;;;;12.60;6.55;;;3.40;99.90;;;;;;6276865;22;20039;-87
2023/03/09 08:52:52;;;;;;;12.65;6.60;;;2.90;99.90;;;;;;6278820;22;20030;-87
2023/03/09 08:55:17;;;;;;;10.10;5.63;;;2.70;99.90;;;;;;6251164;22;20015;-88
2023/03/09 08:57:43;;;;;;;10.35;5.70;;;2.80;99.90;;;;;;6276736;22;20049;-86
2023/03/09 09:00:10;;;;;;;13.75;6.60;;;3.60;99.90;;;;;;6278441;22;20038;-87
2023/03/09 09:02:44;;;;;;;11.63;6.28;;;2.80;99.90;;;;;;6276331;22;20047;-87
2023/03/09 09:05:10;;;;;;;12.20;5.97;;;3.00;99.90;;;;;;6276679;22;20031;-87
2023/03/09 09:07:35;;;;;;;11.73;6.07;;;3.00;99.90;;;;;;6276597;22;20016;-88
2023/03/09 09:10:02;;;;;;;12.50;5.93;;;3.10;99.90;;;;;;6277189;22;20095;-86
2023/03/09 09:12:32;;;;;;;11.50;5.93;;;3.20;99.90;;;;;;6276833;22;20106;-87
2023/03/09 09:14:58;;;;;;;13.00;6.50;;;3.50;99.90;;;;;;6278682;22;20461;-87
2023/03/09 09:17:24;;;;;;;14.52;7.75;;;3.40;99.90;;;;;;6276483;22;20012;-87
2023/03/09 09:19:51;;;;;;;15.30;6.93;;;3.40;99.90;;;;;;6276436;22;20438;-87
2023/03/09 09:22:17;;;;;;;11.85;6.63;;;3.60;99.90;;;;;;6276686;22;20055;-87
2023/03/09 09:24:44;;;;;;;11.30;6.43;;;3.60;99.90;;;;;;6278034;22;20041;-87
2023/03/09 09:27:10;;;;;;;12.02;5.90;;;4.60;99.90;;;;;;6276443;22;20020;-87
2023/03/09 09:29:36;;;;;;;12.07;6.85;;;4.00;99.90;;;;;;6278197;22;20026;-87
2023/03/09 09:32:06;;;;;;;10.95;5.78;;;3.20;99.90;;;;;;6276345;22;20496;-87
2023/03/09 09:34:33;;;;;;;10.65;5.60;;;3.90;99.90;;;;;;6277842;22;20015;-87
2023/03/09 09:37:01;;;;;;;9.60;5.53;;;5.00;99.90;;;;;;6277948;22;20016;-87
2023/03/09 09:39:32;;;;;;;10.68;5.57;;;3.90;99.90;;;;;;6276317;22;20114;-87
2023/03/09 09:42:24;;;;;;;11.00;6.10;;;5.20;99.90;;;;;;6276159;22;20423;-87
2023/03/09 09:44:53;;;;;;;8.02;4.80;;;4.00;99.90;;;;;;6276453;22;20839;-87
2023/03/09 09:47:23;;;;;;;8.77;5.32;;;5.10;99.90;;;;;;6276117;22;20134;-87
2023/03/09 09:49:51;;;;;;;9.07;5.00;;;4.20;99.90;;;;;;6277978;22;20022;-87
2023/03/09 09:52:46;;;;;;;10.68;5.40;;;3.70;99.90;;;;;;6277927;22;20329;-87
2023/03/09 09:55:17;;;;;;;9.70;5.65;;;4.50;99.90;;;;;;6276210;22;20019;-87
2023/03/09 09:57:58;;;;;;;8.98;5.13;;;5.40;99.90;;;;;;6276728;22;20020;-88
2023/03/09 10:00:35;;;;;;;10.05;4.30;;;4.30;99.90;;;;;;6277726;22;20065;-87
2023/03/09 10:03:12;;;;;;;8.18;4.65;;;4.40;99.90;;;;;;6277585;22;20020;-86
2023/03/09 10:05:57;;;;;;;9.38;5.05;;;4.50;99.90;;;;;;6250446;22;20503;-88
2023/03/09 10:08:26;;;;;;;7.72;4.93;;;5.40;99.90;;;;;;6276068;22;20019;-87
2023/03/09 10:10:52;;;;;;;8.73;4.55;;;5.50;99.90;;;;;;6277750;22;20343;-87
2023/03/09 10:13:34;;;;;;;8.85;5.65;;;4.70;99.90;;;;;;6275935;22;20087;-87
2023/03/09 10:16:05;;;;;;;9.43;5.20;;;5.40;99.90;;;;;;6277840;22;20398;-87
2023/03/09 10:18:39;;;;;;;10.32;5.82;;;3.30;99.90;;;;;;6275994;22;20822;-88
2023/03/09 10:21:17;;;;;;;10.48;5.43;;;5.30;99.90;;;;;;6277766;22;20350;-87
2023/03/09 10:23:44;;;;;;;6.93;4.22;;;4.50;99.90;;;;;;6250081;22;20450;-87
2023/03/09 10:26:43;;;;;;;6.97;4.65;;;4.60;99.90;;;;;;6276266;22;20529;-87
2023/03/09 10:29:35;;;;;;;8.40;5.00;;;4.60;99.90;;;;;;6276091;22;20019;-87
2023/03/09 10:32:07;;;;;;;9.45;5.45;;;4.80;99.90;;;;;;6277396;22;20073;-88
2023/03/09 10:34:50;;;;;;;8.98;5.30;;;5.10;99.90;;;;;;6277348;22;20012;-88
2023/03/09 10:37:23;;;;;;;11.02;4.97;;;5.20;99.90;;;;;;6275548;22;20071;-86
2023/03/09 10:39:49;;;;;;;8.25;4.63;;;5.30;99.90;;;;;;6276817;22;20450;-86
2023/03/09 10:42:24;;;;;;;9.95;4.53;;;5.70;99.90;;;;;;6275093;22;20016;-87
2023/03/09 10:45:16;;;;;;;5.50;3.15;;;5.20;99.90;;;;;;6275717;22;20086;-90
2023/03/09 10:47:52;;;;;;;4.30;2.53;;;5.10;99.90;;;;;;6187632;23;20017;-84
2023/03/09 10:50:27;;;;;;;4.07;2.30;;;5.20;99.90;;;;;;6187842;23;20051;-91
2023/03/09 10:52:54;;;;;;;5.18;3.00;;;5.30;99.90;;;;;;6213319;23;20023;-89
2023/03/09 10:55:27;;;;;;;5.13;3.42;;;6.50;99.90;;;;;;6187945;23;20013;-88
2023/03/09 10:58:18;;;;;;;5.03;2.90;;;6.10;99.90;;;;;;6213270;22;20056;-88
2023/03/09 11:01:07;;;;;;;6.75;2.67;;;5.60;99.90;;;;;;6163503;23;20017;-87
2023/03/09 11:03:38;;;;;;;4.35;3.03;;;5.70;99.90;;;;;;6188942;23;20488;-88
2023/03/09 11:06:29;;;;;;;4.63;2.35;;;5.90;99.90;;;;;;6213895;23;20039;-88
2023/03/09 11:09:10;;;;;;;4.95;2.33;;;5.80;99.90;;;;;;6163526;23;20079;-88
2023/03/09 11:11:39;;;;;;;5.50;2.75;;;5.80;99.90;;;;;;6187533;23;20021;-87
2023/03/09 11:14:29;;;;;;;5.10;2.60;;;5.70;99.90;;;;;;6189504;23;20079;-88
2023/03/09 11:16:59;;;;;;;3.25;2.00;;;5.70;99.90;;;;;;6214136;23;20089;-88
2023/03/09 11:19:34;;;;;;;4.50;1.92;;;5.80;99.90;;;;;;6212647;23;20016;-89
2023/03/09 11:22:16;;;;;;;4.95;2.20;;;5.70;99.90;;;;;;6213256;23;20043;-85
2023/03/09 11:24:55;;;;;;;2.78;1.85;;;5.80;99.90;;;;;;6229709;22;20015;-90
2023/03/09 11:27:32;;;;;;;4.18;2.15;;;5.90;99.90;;;;;;6275111;22;20031;-90
2023/03/09 11:30:13;;;;;;;4.47;2.08;;;5.90;99.90;;;;;;6274847;22;20020;-87
2023/03/09 11:32:39;;;;;;;3.28;1.80;;;5.80;99.90;;;;;;6274755;22;20023;-87
2023/03/09 11:35:06;;;;;;;3.90;1.70;;;6.70;99.90;;;;;;6276324;22;20058;-87
2023/03/09 11:37:49;;;;;;;5.35;2.25;;;6.90;99.90;;;;;;6274885;22;20442;-89
2023/03/09 11:40:20;;;;;;;3.55;2.05;;;5.90;99.90;;;;;;6275740;22;20007;-87
2023/03/09 11:42:50;;;;;;;4.85;2.80;;;5.40;99.90;;;;;;6274197;22;20368;-88
2023/03/09 11:45:29;;;;;;;3.30;2.28;;;5.90;99.90;;;;;;6274677;22;20015;-86
2023/03/09 11:48:04;;;;;;;4.65;2.60;;;5.90;99.90;;;;;;6274170;22;20080;-87
2023/03/09 11:50:38;;;;;;;4.30;2.72;;;5.70;99.90;;;;;;6275433;22;20027;-88
2023/03/09 11:53:22;;;;;;;3.65;2.20;;;5.60;99.90;;;;;;6276977;22;20496;-87
2023/03/09 11:55:53;;;;;;;3.97;2.22;;;5.70;99.90;;;;;;6276337;22;20023;-87
2023/03/09 11:58:24;;;;;;;2.15;1.30;;;6.60;99.90;;;;;;6276763;22;20019;-87
2023/03/09 12:01:10;;;;;;;2.50;1.30;;;6.00;99.90;;;;;;6274800;22;20434;-86
2023/03/09 12:03:48;;;;;;;2.45;1.13;;;6.70;99.90;;;;;;6274932;22;20051;-87
2023/03/09 12:06:55;;;;;;;2.42;1.30;;;5.80;99.90;;;;;;6275880;22;20069;-87
2023/03/09 12:09:45;;;;;;;2.25;1.40;;;5.80;99.90;;;;;;6162031;23;20027;-87
2023/03/09 12:12:23;;;;;;;2.83;1.50;;;5.90;99.90;;;;;;6162538;23;20059;-85
2023/03/09 12:15:01;;;;;;;4.65;2.10;;;5.90;99.90;;;;;;6212873;23;20458;-87
2023/03/09 12:17:36;;;;;;;3.50;1.90;;;5.90;99.90;;;;;;6212175;23;20019;-87
2023/03/09 12:20:06;;;;;;;4.65;2.50;;;5.90;99.90;;;;;;6187249;23;20104;-90
2023/03/09 12:22:38;;;;;;;4.40;2.42;;;5.90;99.90;;;;;;6187570;23;20503;-85
2023/03/09 12:25:06;;;;;;;4.22;2.67;;;6.80;99.90;;;;;;6186327;23;20116;-87
2023/03/09 12:27:35;;;;;;;4.75;2.67;;;5.90;99.90;;;;;;6212034;23;20052;-84
2023/03/09 12:30:09;;;;;;;5.18;2.10;;;6.10;99.90;;;;;;6209894;23;20024;-86
2023/03/09 12:32:37;;;;;;;3.75;2.50;;;6.20;99.90;;;;;;6161421;23;20451;-87
2023/03/09 12:35:09;;;;;;;3.38;1.80;;;6.70;99.90;;;;;;6212448;23;20047;-86
2023/03/09 12:37:41;;;;;;;3.15;2.03;;;6.00;99.90;;;;;;6211395;23;20048;-88
2023/03/09 12:40:15;;;;;;;3.08;2.00;;;6.10;99.90;;;;;;6212639;23;20506;-87
2023/03/09 12:42:43;;;;;;;2.88;1.60;;;6.10;99.90;;;;;;6187091;23;20025;-89
2023/03/09 12:45:13;;;;;;;3.78;1.90;;;6.00;99.90;;;;;;6213518;22;20482;-87
2023/03/09 12:47:50;;;;;;;3.17;1.67;;;6.00;99.90;;;;;;6274686;22;20458;-88
2023/03/09 12:50:28;;;;;;;4.03;2.13;;;5.60;99.90;;;;;;6249063;22;20027;-87
2023/03/09 12:53:18;;;;;;;5.28;2.22;;;6.00;99.90;;;;;;6275124;22;20073;-86
2023/03/09 12:55:56;;;;;;;2.58;1.77;;;6.00;99.90;;;;;;6273932;22;20019;-88
2023/03/09 12:58:21;;;;;;;2.72;1.88;;;6.10;99.90;;;;;;6274028;22;20447;-88
2023/03/09 13:01:01;;;;;;;3.90;2.13;;;6.10;99.90;;;;;;6273826;22;20020;-87
2023/03/09 13:03:41;;;;;;;3.55;2.08;;;6.20;99.90;;;;;;6274368;22;20026;-86
2023/03/09 13:06:36;;;;;;;4.38;2.30;;;6.10;99.90;;;;;;6273889;22;20066;-86